sensor_id;sensor_type;location;lat;lon;timestamp;P1;durP1;ratioP1;P2;durP2;ratioP2
40453;SDS011;26160;51.858;4.398;2023-12-07T00:21:49;26.27;;;17.37;;
40453;SDS011;26160;51.858;4.398;2023-12-07T00:26:51;25.93;;;15.93;;
40453;SDS011;26160;51.858;4.398;2023-12-07T00:34:37;22.87;;;15.37;;
40453;SDS011;26160;51.858;4.398;2023-12-07T00:42:27;26.13;;;16.63;;
40453;SDS011;26160;51.858;4.398;2023-12-07T01:00:49;21.67;;;14.37;;
40453;SDS011;26160;51.858;4.398;2023-12-07T01:08:43;19.63;;;14.37;;
40453;SDS011;26160;51.858;4.398;2023-12-07T01:18:58;17.70;;;12.53;;
40453;SDS011;26160;51.858;4.398;2023-12-07T01:47:26;22.60;;;13.77;;
40453;SDS011;26160;51.858;4.398;2023-12-07T01:49:56;16.97;;;11.67;;
40453;SDS011;26160;51.858;4.398;2023-12-07T01:55:02;23.20;;;14.57;;
40453;SDS011;26160;51.858;4.398;2023-12-07T02:03:20;24.17;;;16.23;;
40453;SDS011;26160;51.858;4.398;2023-12-07T02:05:47;41.03;;;22.60;;
40453;SDS011;26160;51.858;4.398;2023-12-07T02:08:17;46.83;;;26.27;;
40453;SDS011;26160;51.858;4.398;2023-12-07T02:10:43;36.73;;;22.37;;
40453;SDS011;26160;51.858;4.398;2023-12-07T02:13:11;51.40;;;28.20;;
40453;SDS011;26160;51.858;4.398;2023-12-07T02:15:38;45.60;;;26.47;;
40453;SDS011;26160;51.858;4.398;2023-12-07T02:18:14;58.40;;;34.90;;
40453;SDS011;26160;51.858;4.398;2023-12-07T02:21:06;56.03;;;32.13;;
40453;SDS011;26160;51.858;4.398;2023-12-07T02:23:35;42.97;;;27.63;;
40453;SDS011;26160;51.858;4.398;2023-12-07T02:26:03;46.43;;;29.57;;
40453;SDS011;26160;51.858;4.398;2023-12-07T02:28:32;49.17;;;31.23;;
40453;SDS011;26160;51.858;4.398;2023-12-07T02:30:58;52.60;;;29.90;;
40453;SDS011;26160;51.858;4.398;2023-12-07T02:33:24;45.97;;;26.87;;
40453;SDS011;26160;51.858;4.398;2023-12-07T02:35:50;49.37;;;28.30;;
40453;SDS011;26160;51.858;4.398;2023-12-07T02:38:17;41.80;;;26.77;;
40453;SDS011;26160;51.858;4.398;2023-12-07T02:40:44;48.80;;;29.13;;
40453;SDS011;26160;51.858;4.398;2023-12-07T02:43:14;58.00;;;30.33;;
40453;SDS011;26160;51.858;4.398;2023-12-07T02:45:40;55.27;;;30.87;;
40453;SDS011;26160;51.858;4.398;2023-12-07T02:48:08;66.67;;;37.10;;
40453;SDS011;26160;51.858;4.398;2023-12-07T02:50:34;43.53;;;26.67;;
40453;SDS011;26160;51.858;4.398;2023-12-07T02:53:00;37.73;;;27.20;;
40453;SDS011;26160;51.858;4.398;2023-12-07T02:55:26;42.80;;;27.73;;
40453;SDS011;26160;51.858;4.398;2023-12-07T02:57:52;44.77;;;30.00;;
40453;SDS011;26160;51.858;4.398;2023-12-07T03:00:18;58.97;;;33.27;;
40453;SDS011;26160;51.858;4.398;2023-12-07T03:02:46;57.53;;;32.13;;
40453;SDS011;26160;51.858;4.398;2023-12-07T03:05:13;58.73;;;34.43;;
40453;SDS011;26160;51.858;4.398;2023-12-07T03:07:39;87.47;;;43.23;;
40453;SDS011;26160;51.858;4.398;2023-12-07T03:10:06;66.07;;;36.17;;
40453;SDS011;26160;51.858;4.398;2023-12-07T03:12:32;101.90;;;38.83;;
40453;SDS011;26160;51.858;4.398;2023-12-07T03:14:59;86.67;;;36.00;;
40453;SDS011;26160;51.858;4.398;2023-12-07T03:17:25;137.63;;;43.70;;
40453;SDS011;26160;51.858;4.398;2023-12-07T03:19:51;74.97;;;35.30;;
40453;SDS011;26160;51.858;4.398;2023-12-07T03:22:17;90.60;;;36.60;;
40453;SDS011;26160;51.858;4.398;2023-12-07T03:24:49;120.70;;;37.73;;
40453;SDS011;26160;51.858;4.398;2023-12-07T03:27:16;65.90;;;32.33;;
40453;SDS011;26160;51.858;4.398;2023-12-07T03:29:46;84.27;;;34.07;;
40453;SDS011;26160;51.858;4.398;2023-12-07T03:32:12;71.00;;;34.73;;
40453;SDS011;26160;51.858;4.398;2023-12-07T03:34:38;65.13;;;33.20;;
40453;SDS011;26160;51.858;4.398;2023-12-07T03:37:04;91.30;;;37.07;;
40453;SDS011;26160;51.858;4.398;2023-12-07T03:39:32;124.83;;;34.60;;
40453;SDS011;26160;51.858;4.398;2023-12-07T03:41:58;177.90;;;41.57;;
40453;SDS011;26160;51.858;4.398;2023-12-07T03:44:24;125.47;;;34.00;;
40453;SDS011;26160;51.858;4.398;2023-12-07T03:46:52;131.80;;;35.33;;
40453;SDS011;26160;51.858;4.398;2023-12-07T03:49:18;154.90;;;37.70;;
40453;SDS011;26160;51.858;4.398;2023-12-07T03:51:44;100.87;;;30.83;;
40453;SDS011;26160;51.858;4.398;2023-12-07T03:54:11;175.47;;;33.93;;
40453;SDS011;26160;51.858;4.398;2023-12-07T03:56:37;109.40;;;32.63;;
40453;SDS011;26160;51.858;4.398;2023-12-07T03:59:06;103.87;;;30.43;;
40453;SDS011;26160;51.858;4.398;2023-12-07T04:01:32;59.87;;;28.73;;
40453;SDS011;26160;51.858;4.398;2023-12-07T04:03:58;98.43;;;31.57;;
40453;SDS011;26160;51.858;4.398;2023-12-07T04:06:26;88.13;;;28.57;;
40453;SDS011;26160;51.858;4.398;2023-12-07T04:08:52;115.57;;;28.53;;
40453;SDS011;26160;51.858;4.398;2023-12-07T04:11:19;88.67;;;24.63;;
40453;SDS011;26160;51.858;4.398;2023-12-07T04:13:45;122.77;;;27.13;;
40453;SDS011;26160;51.858;4.398;2023-12-07T04:16:12;131.53;;;27.63;;
40453;SDS011;26160;51.858;4.398;2023-12-07T04:18:38;160.00;;;28.43;;
40453;SDS011;26160;51.858;4.398;2023-12-07T04:21:04;83.57;;;23.43;;
40453;SDS011;26160;51.858;4.398;2023-12-07T04:23:31;82.03;;;24.70;;
40453;SDS011;26160;51.858;4.398;2023-12-07T04:25:57;80.00;;;22.00;;
40453;SDS011;26160;51.858;4.398;2023-12-07T04:28:23;102.17;;;23.47;;
40453;SDS011;26160;51.858;4.398;2023-12-07T04:30:49;159.17;;;23.83;;
40453;SDS011;26160;51.858;4.398;2023-12-07T04:33:15;124.87;;;26.97;;
40453;SDS011;26160;51.858;4.398;2023-12-07T04:35:41;162.57;;;29.30;;
40453;SDS011;26160;51.858;4.398;2023-12-07T04:38:07;120.00;;;28.47;;
40453;SDS011;26160;51.858;4.398;2023-12-07T04:40:34;184.63;;;37.17;;
40453;SDS011;26160;51.858;4.398;2023-12-07T04:43:00;166.37;;;32.20;;
40453;SDS011;26160;51.858;4.398;2023-12-07T04:45:26;148.53;;;33.90;;
40453;SDS011;26160;51.858;4.398;2023-12-07T04:47:52;130.87;;;32.60;;
40453;SDS011;26160;51.858;4.398;2023-12-07T04:50:18;94.07;;;31.07;;
40453;SDS011;26160;51.858;4.398;2023-12-07T04:52:44;141.83;;;32.67;;
40453;SDS011;26160;51.858;4.398;2023-12-07T04:55:11;202.43;;;43.80;;
40453;SDS011;26160;51.858;4.398;2023-12-07T04:57:37;141.53;;;40.93;;
40453;SDS011;26160;51.858;4.398;2023-12-07T05:00:03;121.87;;;33.40;;
40453;SDS011;26160;51.858;4.398;2023-12-07T05:02:35;89.57;;;30.80;;
40453;SDS011;26160;51.858;4.398;2023-12-07T05:05:03;108.20;;;35.30;;
40453;SDS011;26160;51.858;4.398;2023-12-07T05:07:30;100.67;;;32.97;;
40453;SDS011;26160;51.858;4.398;2023-12-07T05:09:56;113.07;;;32.90;;
40453;SDS011;26160;51.858;4.398;2023-12-07T05:12:22;100.83;;;31.33;;
40453;SDS011;26160;51.858;4.398;2023-12-07T05:14:48;129.07;;;31.30;;
40453;SDS011;26160;51.858;4.398;2023-12-07T05:17:16;134.83;;;34.90;;
40453;SDS011;26160;51.858;4.398;2023-12-07T05:19:43;76.73;;;25.93;;
40453;SDS011;26160;51.858;4.398;2023-12-07T05:22:10;126.60;;;29.57;;
40453;SDS011;26160;51.858;4.398;2023-12-07T05:24:36;104.07;;;27.77;;
40453;SDS011;26160;51.858;4.398;2023-12-07T05:27:02;97.07;;;27.47;;
40453;SDS011;26160;51.858;4.398;2023-12-07T05:29:29;158.50;;;31.93;;
40453;SDS011;26160;51.858;4.398;2023-12-07T05:31:55;144.73;;;32.33;;
40453;SDS011;26160;51.858;4.398;2023-12-07T05:34:21;94.53;;;26.77;;
40453;SDS011;26160;51.858;4.398;2023-12-07T05:36:47;207.10;;;34.50;;
40453;SDS011;26160;51.858;4.398;2023-12-07T05:39:13;101.83;;;25.60;;
40453;SDS011;26160;51.858;4.398;2023-12-07T05:41:40;79.10;;;26.00;;
40453;SDS011;26160;51.858;4.398;2023-12-07T05:44:06;149.93;;;31.00;;
40453;SDS011;26160;51.858;4.398;2023-12-07T05:46:35;108.40;;;27.83;;
40453;SDS011;26160;51.858;4.398;2023-12-07T05:49:02;180.37;;;31.47;;
40453;SDS011;26160;51.858;4.398;2023-12-07T05:51:28;92.37;;;26.07;;
40453;SDS011;26160;51.858;4.398;2023-12-07T05:53:55;162.80;;;30.90;;
40453;SDS011;26160;51.858;4.398;2023-12-07T05:56:21;108.73;;;25.57;;
40453;SDS011;26160;51.858;4.398;2023-12-07T05:58:50;63.87;;;24.50;;
40453;SDS011;26160;51.858;4.398;2023-12-07T06:01:17;56.33;;;22.80;;
40453;SDS011;26160;51.858;4.398;2023-12-07T06:03:44;113.87;;;25.97;;
40453;SDS011;26160;51.858;4.398;2023-12-07T06:06:12;142.00;;;24.93;;
40453;SDS011;26160;51.858;4.398;2023-12-07T06:08:38;96.23;;;25.07;;
40453;SDS011;26160;51.858;4.398;2023-12-07T06:11:04;84.50;;;24.23;;
40453;SDS011;26160;51.858;4.398;2023-12-07T06:13:30;89.47;;;24.13;;
40453;SDS011;26160;51.858;4.398;2023-12-07T06:15:57;94.73;;;25.13;;
40453;SDS011;26160;51.858;4.398;2023-12-07T06:18:23;98.43;;;26.17;;
40453;SDS011;26160;51.858;4.398;2023-12-07T06:20:50;127.90;;;24.40;;
40453;SDS011;26160;51.858;4.398;2023-12-07T06:23:16;226.83;;;31.33;;
40453;SDS011;26160;51.858;4.398;2023-12-07T06:25:42;145.13;;;28.63;;
40453;SDS011;26160;51.858;4.398;2023-12-07T06:28:08;130.23;;;29.73;;
40453;SDS011;26160;51.858;4.398;2023-12-07T06:30:35;146.90;;;27.23;;
40453;SDS011;26160;51.858;4.398;2023-12-07T06:33:01;96.63;;;27.03;;
40453;SDS011;26160;51.858;4.398;2023-12-07T06:35:27;151.77;;;30.87;;
40453;SDS011;26160;51.858;4.398;2023-12-07T06:37:53;90.47;;;26.53;;
40453;SDS011;26160;51.858;4.398;2023-12-07T06:40:19;130.10;;;29.97;;
40453;SDS011;26160;51.858;4.398;2023-12-07T06:42:48;132.00;;;30.60;;
40453;SDS011;26160;51.858;4.398;2023-12-07T06:45:15;160.27;;;32.90;;
40453;SDS011;26160;51.858;4.398;2023-12-07T06:47:41;159.33;;;32.40;;
40453;SDS011;26160;51.858;4.398;2023-12-07T06:50:10;89.20;;;29.53;;
40453;SDS011;26160;51.858;4.398;2023-12-07T06:52:36;103.23;;;26.90;;
40453;SDS011;26160;51.858;4.398;2023-12-07T06:55:03;116.80;;;28.67;;
40453;SDS011;26160;51.858;4.398;2023-12-07T06:57:30;156.23;;;31.50;;
40453;SDS011;26160;51.858;4.398;2023-12-07T06:59:56;129.17;;;30.17;;
40453;SDS011;26160;51.858;4.398;2023-12-07T07:02:22;114.60;;;29.63;;
40453;SDS011;26160;51.858;4.398;2023-12-07T07:04:48;125.23;;;29.07;;
40453;SDS011;26160;51.858;4.398;2023-12-07T07:07:15;139.70;;;32.07;;
40453;SDS011;26160;51.858;4.398;2023-12-07T07:09:41;87.03;;;29.40;;
40453;SDS011;26160;51.858;4.398;2023-12-07T07:12:07;135.30;;;30.07;;
40453;SDS011;26160;51.858;4.398;2023-12-07T07:14:34;171.20;;;31.67;;
40453;SDS011;26160;51.858;4.398;2023-12-07T07:17:00;120.70;;;28.20;;
40453;SDS011;26160;51.858;4.398;2023-12-07T07:19:26;163.30;;;30.57;;
40453;SDS011;26160;51.858;4.398;2023-12-07T07:21:52;151.90;;;30.67;;
40453;SDS011;26160;51.858;4.398;2023-12-07T07:24:19;136.43;;;28.33;;
40453;SDS011;26160;51.858;4.398;2023-12-07T07:26:46;219.70;;;33.97;;
40453;SDS011;26160;51.858;4.398;2023-12-07T07:29:12;83.47;;;26.73;;
40453;SDS011;26160;51.858;4.398;2023-12-07T07:31:38;172.50;;;32.57;;
40453;SDS011;26160;51.858;4.398;2023-12-07T07:34:06;114.73;;;28.10;;
40453;SDS011;26160;51.858;4.398;2023-12-07T07:36:33;175.20;;;32.37;;
40453;SDS011;26160;51.858;4.398;2023-12-07T07:38:59;146.63;;;29.67;;
40453;SDS011;26160;51.858;4.398;2023-12-07T07:41:26;120.13;;;28.67;;
40453;SDS011;26160;51.858;4.398;2023-12-07T07:43:52;110.80;;;28.43;;
40453;SDS011;26160;51.858;4.398;2023-12-07T07:46:18;113.23;;;30.23;;
40453;SDS011;26160;51.858;4.398;2023-12-07T07:48:44;161.60;;;31.10;;
40453;SDS011;26160;51.858;4.398;2023-12-07T07:51:10;143.73;;;31.77;;
40453;SDS011;26160;51.858;4.398;2023-12-07T07:53:36;141.70;;;30.33;;
40453;SDS011;26160;51.858;4.398;2023-12-07T07:56:03;136.20;;;32.60;;
40453;SDS011;26160;51.858;4.398;2023-12-07T07:58:29;122.83;;;30.23;;
40453;SDS011;26160;51.858;4.398;2023-12-07T08:00:56;126.43;;;32.30;;
40453;SDS011;26160;51.858;4.398;2023-12-07T08:03:22;156.73;;;33.00;;
40453;SDS011;26160;51.858;4.398;2023-12-07T08:05:49;148.90;;;34.43;;
40453;SDS011;26160;51.858;4.398;2023-12-07T08:08:15;104.20;;;29.90;;
40453;SDS011;26160;51.858;4.398;2023-12-07T08:10:41;196.60;;;35.73;;
40453;SDS011;26160;51.858;4.398;2023-12-07T08:13:08;154.70;;;32.30;;
40453;SDS011;26160;51.858;4.398;2023-12-07T08:15:34;116.70;;;30.43;;
40453;SDS011;26160;51.858;4.398;2023-12-07T08:18:00;199.50;;;36.97;;
40453;SDS011;26160;51.858;4.398;2023-12-07T08:20:30;222.77;;;37.47;;
40453;SDS011;26160;51.858;4.398;2023-12-07T08:22:57;139.20;;;35.20;;
40453;SDS011;26160;51.858;4.398;2023-12-07T08:25:23;163.23;;;35.43;;
40453;SDS011;26160;51.858;4.398;2023-12-07T08:27:49;106.23;;;33.40;;
40453;SDS011;26160;51.858;4.398;2023-12-07T08:30:15;116.73;;;33.47;;
40453;SDS011;26160;51.858;4.398;2023-12-07T08:32:41;158.40;;;36.97;;
40453;SDS011;26160;51.858;4.398;2023-12-07T08:35:07;132.20;;;34.97;;
40453;SDS011;26160;51.858;4.398;2023-12-07T08:37:34;156.83;;;37.30;;
40453;SDS011;26160;51.858;4.398;2023-12-07T08:40:03;132.77;;;36.33;;
40453;SDS011;26160;51.858;4.398;2023-12-07T08:42:30;107.60;;;34.70;;
40453;SDS011;26160;51.858;4.398;2023-12-07T08:44:57;164.67;;;40.87;;
40453;SDS011;26160;51.858;4.398;2023-12-07T08:47:23;144.07;;;40.93;;
40453;SDS011;26160;51.858;4.398;2023-12-07T08:49:53;153.60;;;37.87;;
40453;SDS011;26160;51.858;4.398;2023-12-07T08:52:19;142.13;;;39.67;;
40453;SDS011;26160;51.858;4.398;2023-12-07T08:54:45;150.60;;;40.93;;
40453;SDS011;26160;51.858;4.398;2023-12-07T08:57:12;128.83;;;39.40;;
40453;SDS011;26160;51.858;4.398;2023-12-07T08:59:38;121.60;;;39.73;;
40453;SDS011;26160;51.858;4.398;2023-12-07T09:02:05;131.43;;;40.10;;
40453;SDS011;26160;51.858;4.398;2023-12-07T09:04:31;138.67;;;42.43;;
40453;SDS011;26160;51.858;4.398;2023-12-07T09:06:57;140.80;;;41.87;;
40453;SDS011;26160;51.858;4.398;2023-12-07T09:09:23;135.13;;;40.43;;
40453;SDS011;26160;51.858;4.398;2023-12-07T09:11:51;145.53;;;43.03;;
40453;SDS011;26160;51.858;4.398;2023-12-07T09:14:17;150.90;;;45.30;;
40453;SDS011;26160;51.858;4.398;2023-12-07T09:16:43;139.37;;;44.27;;
40453;SDS011;26160;51.858;4.398;2023-12-07T09:19:10;160.83;;;45.63;;
40453;SDS011;26160;51.858;4.398;2023-12-07T09:21:39;130.97;;;44.47;;
40453;SDS011;26160;51.858;4.398;2023-12-07T09:24:06;120.20;;;40.53;;
40453;SDS011;26160;51.858;4.398;2023-12-07T09:26:35;111.07;;;42.10;;
40453;SDS011;26160;51.858;4.398;2023-12-07T09:29:02;92.70;;;36.07;;
40453;SDS011;26160;51.858;4.398;2023-12-07T09:31:28;105.27;;;38.57;;
40453;SDS011;26160;51.858;4.398;2023-12-07T09:33:54;95.10;;;35.77;;
40453;SDS011;26160;51.858;4.398;2023-12-07T09:36:21;94.03;;;35.27;;
40453;SDS011;26160;51.858;4.398;2023-12-07T09:38:49;95.77;;;36.90;;
40453;SDS011;26160;51.858;4.398;2023-12-07T09:41:15;91.83;;;34.83;;
40453;SDS011;26160;51.858;4.398;2023-12-07T09:43:43;97.03;;;37.60;;
40453;SDS011;26160;51.858;4.398;2023-12-07T09:46:09;84.20;;;36.20;;
40453;SDS011;26160;51.858;4.398;2023-12-07T09:48:37;92.60;;;36.23;;
40453;SDS011;26160;51.858;4.398;2023-12-07T09:51:08;75.33;;;34.93;;
40453;SDS011;26160;51.858;4.398;2023-12-07T09:53:35;75.60;;;34.10;;
40453;SDS011;26160;51.858;4.398;2023-12-07T09:56:02;81.47;;;34.10;;
40453;SDS011;26160;51.858;4.398;2023-12-07T09:58:28;67.93;;;31.90;;
40453;SDS011;26160;51.858;4.398;2023-12-07T10:00:55;62.73;;;29.90;;
40453;SDS011;26160;51.858;4.398;2023-12-07T10:03:21;78.80;;;33.87;;
40453;SDS011;26160;51.858;4.398;2023-12-07T10:08:31;61.40;;;30.57;;
40453;SDS011;26160;51.858;4.398;2023-12-07T10:11:05;56.17;;;30.43;;
40453;SDS011;26160;51.858;4.398;2023-12-07T10:13:33;60.53;;;30.47;;
40453;SDS011;26160;51.858;4.398;2023-12-07T10:16:08;69.57;;;34.10;;
40453;SDS011;26160;51.858;4.398;2023-12-07T10:18:38;73.03;;;33.63;;
40453;SDS011;26160;51.858;4.398;2023-12-07T10:21:06;76.17;;;35.43;;
40453;SDS011;26160;51.858;4.398;2023-12-07T10:23:33;61.60;;;33.00;;
40453;SDS011;26160;51.858;4.398;2023-12-07T10:26:00;60.50;;;33.70;;
40453;SDS011;26160;51.858;4.398;2023-12-07T10:28:27;59.47;;;32.37;;
40453;SDS011;26160;51.858;4.398;2023-12-07T10:30:53;58.80;;;31.30;;
40453;SDS011;26160;51.858;4.398;2023-12-07T10:33:19;58.13;;;30.37;;
40453;SDS011;26160;51.858;4.398;2023-12-07T10:35:46;57.30;;;31.47;;
40453;SDS011;26160;51.858;4.398;2023-12-07T10:38:14;48.37;;;29.27;;
40453;SDS011;26160;51.858;4.398;2023-12-07T10:40:40;58.77;;;32.80;;
40453;SDS011;26160;51.858;4.398;2023-12-07T10:43:07;65.07;;;34.37;;
40453;SDS011;26160;51.858;4.398;2023-12-07T10:45:34;60.77;;;33.97;;
40453;SDS011;26160;51.858;4.398;2023-12-07T10:48:03;65.17;;;33.03;;
40453;SDS011;26160;51.858;4.398;2023-12-07T10:50:42;60.67;;;34.27;;
40453;SDS011;26160;51.858;4.398;2023-12-07T10:53:19;62.33;;;34.87;;
40453;SDS011;26160;51.858;4.398;2023-12-07T10:56:01;65.37;;;33.77;;
40453;SDS011;26160;51.858;4.398;2023-12-07T10:58:30;70.07;;;34.60;;
40453;SDS011;26160;51.858;4.398;2023-12-07T11:01:01;59.80;;;33.93;;
40453;SDS011;26160;51.858;4.398;2023-12-07T11:03:28;62.57;;;31.67;;
40453;SDS011;26160;51.858;4.398;2023-12-07T11:05:55;54.90;;;30.97;;
40453;SDS011;26160;51.858;4.398;2023-12-07T11:08:36;59.03;;;30.17;;
40453;SDS011;26160;51.858;4.398;2023-12-07T11:14:04;56.53;;;29.53;;
40453;SDS011;26160;51.858;4.398;2023-12-07T11:16:39;55.17;;;30.05;;
40453;SDS011;26160;51.858;4.398;2023-12-07T11:21:58;59.03;;;30.50;;
40453;SDS011;26160;51.858;4.398;2023-12-07T11:24:25;47.87;;;29.03;;
40453;SDS011;26160;51.858;4.398;2023-12-07T11:26:52;49.13;;;29.70;;
40453;SDS011;26160;51.858;4.398;2023-12-07T11:29:21;44.53;;;26.37;;
40453;SDS011;26160;51.858;4.398;2023-12-07T11:31:50;39.83;;;24.93;;
40453;SDS011;26160;51.858;4.398;2023-12-07T11:37:03;43.80;;;26.00;;
40453;SDS011;26160;51.858;4.398;2023-12-07T11:39:37;45.47;;;25.70;;
40453;SDS011;26160;51.858;4.398;2023-12-07T11:42:07;43.23;;;26.10;;
40453;SDS011;26160;51.858;4.398;2023-12-07T11:44:37;43.77;;;24.20;;
40453;SDS011;26160;51.858;4.398;2023-12-07T11:47:04;37.53;;;24.50;;
40453;SDS011;26160;51.858;4.398;2023-12-07T11:49:31;43.13;;;24.30;;
40453;SDS011;26160;51.858;4.398;2023-12-07T11:51:58;39.60;;;23.83;;
40453;SDS011;26160;51.858;4.398;2023-12-07T11:54:25;36.97;;;22.70;;
40453;SDS011;26160;51.858;4.398;2023-12-07T11:56:55;40.37;;;24.07;;
40453;SDS011;26160;51.858;4.398;2023-12-07T11:59:23;36.03;;;22.87;;
40453;SDS011;26160;51.858;4.398;2023-12-07T12:01:53;39.07;;;24.83;;
40453;SDS011;26160;51.858;4.398;2023-12-07T12:04:21;39.03;;;23.47;;
40453;SDS011;26160;51.858;4.398;2023-12-07T12:06:47;44.20;;;24.40;;
40453;SDS011;26160;51.858;4.398;2023-12-07T12:09:16;38.63;;;22.67;;
40453;SDS011;26160;51.858;4.398;2023-12-07T12:11:46;37.53;;;24.50;;
40453;SDS011;26160;51.858;4.398;2023-12-07T12:14:16;43.20;;;24.67;;
40453;SDS011;26160;51.858;4.398;2023-12-07T12:16:43;37.20;;;23.33;;
40453;SDS011;26160;51.858;4.398;2023-12-07T12:19:10;38.33;;;24.33;;
40453;SDS011;26160;51.858;4.398;2023-12-07T12:21:37;50.23;;;24.97;;
40453;SDS011;26160;51.858;4.398;2023-12-07T12:24:10;44.60;;;25.30;;
40453;SDS011;26160;51.858;4.398;2023-12-07T12:26:39;34.17;;;22.37;;
40453;SDS011;26160;51.858;4.398;2023-12-07T12:29:08;39.47;;;24.10;;
40453;SDS011;26160;51.858;4.398;2023-12-07T12:31:37;35.27;;;23.70;;
40453;SDS011;26160;51.858;4.398;2023-12-07T12:34:07;41.63;;;25.03;;
40453;SDS011;26160;51.858;4.398;2023-12-07T12:36:37;38.63;;;24.17;;
40453;SDS011;26160;51.858;4.398;2023-12-07T12:39:04;42.63;;;24.63;;
40453;SDS011;26160;51.858;4.398;2023-12-07T12:41:33;38.93;;;24.83;;
40453;SDS011;26160;51.858;4.398;2023-12-07T12:44:00;44.27;;;25.33;;
40453;SDS011;26160;51.858;4.398;2023-12-07T12:46:26;37.67;;;24.17;;
40453;SDS011;26160;51.858;4.398;2023-12-07T12:48:53;37.63;;;24.30;;
40453;SDS011;26160;51.858;4.398;2023-12-07T12:51:27;35.10;;;24.30;;
40453;SDS011;26160;51.858;4.398;2023-12-07T12:53:58;38.43;;;24.43;;
40453;SDS011;26160;51.858;4.398;2023-12-07T12:56:26;38.10;;;24.37;;
40453;SDS011;26160;51.858;4.398;2023-12-07T12:58:53;37.10;;;23.53;;
40453;SDS011;26160;51.858;4.398;2023-12-07T13:01:23;40.93;;;24.57;;
40453;SDS011;26160;51.858;4.398;2023-12-07T13:03:49;35.47;;;23.50;;
40453;SDS011;26160;51.858;4.398;2023-12-07T13:06:16;42.73;;;25.87;;
40453;SDS011;26160;51.858;4.398;2023-12-07T13:08:46;36.87;;;24.43;;
40453;SDS011;26160;51.858;4.398;2023-12-07T13:11:17;37.37;;;24.20;;
40453;SDS011;26160;51.858;4.398;2023-12-07T13:13:44;35.17;;;23.23;;
40453;SDS011;26160;51.858;4.398;2023-12-07T13:16:12;36.53;;;23.03;;
40453;SDS011;26160;51.858;4.398;2023-12-07T13:18:40;35.73;;;22.77;;
40453;SDS011;26160;51.858;4.398;2023-12-07T13:21:06;34.70;;;23.93;;
40453;SDS011;26160;51.858;4.398;2023-12-07T13:23:35;39.37;;;23.20;;
40453;SDS011;26160;51.858;4.398;2023-12-07T13:26:02;30.20;;;21.73;;
40453;SDS011;26160;51.858;4.398;2023-12-07T13:28:28;34.67;;;22.93;;
40453;SDS011;26160;51.858;4.398;2023-12-07T13:30:54;31.17;;;21.90;;
40453;SDS011;26160;51.858;4.398;2023-12-07T13:33:21;34.70;;;21.60;;
40453;SDS011;26160;51.858;4.398;2023-12-07T13:35:48;29.73;;;20.40;;
40453;SDS011;26160;51.858;4.398;2023-12-07T13:38:15;36.33;;;22.70;;
40453;SDS011;26160;51.858;4.398;2023-12-07T13:40:45;32.17;;;20.53;;
40453;SDS011;26160;51.858;4.398;2023-12-07T13:43:12;31.17;;;20.93;;
40453;SDS011;26160;51.858;4.398;2023-12-07T13:45:38;30.73;;;20.17;;
40453;SDS011;26160;51.858;4.398;2023-12-07T13:48:04;30.33;;;21.23;;
40453;SDS011;26160;51.858;4.398;2023-12-07T13:50:30;32.20;;;20.50;;
40453;SDS011;26160;51.858;4.398;2023-12-07T13:52:57;30.03;;;20.23;;
40453;SDS011;26160;51.858;4.398;2023-12-07T13:55:23;33.87;;;21.67;;
40453;SDS011;26160;51.858;4.398;2023-12-07T13:57:49;30.27;;;18.90;;
40453;SDS011;26160;51.858;4.398;2023-12-07T14:00:18;27.47;;;19.80;;
40453;SDS011;26160;51.858;4.398;2023-12-07T14:02:45;27.80;;;18.33;;
40453;SDS011;26160;51.858;4.398;2023-12-07T14:05:11;29.10;;;19.13;;
40453;SDS011;26160;51.858;4.398;2023-12-07T14:07:38;26.93;;;18.97;;
40453;SDS011;26160;51.858;4.398;2023-12-07T14:10:04;27.57;;;19.07;;
40453;SDS011;26160;51.858;4.398;2023-12-07T14:12:30;29.50;;;18.93;;
40453;SDS011;26160;51.858;4.398;2023-12-07T14:14:58;30.97;;;19.20;;
40453;SDS011;26160;51.858;4.398;2023-12-07T14:17:24;31.53;;;20.47;;
40453;SDS011;26160;51.858;4.398;2023-12-07T14:19:51;28.03;;;17.83;;
40453;SDS011;26160;51.858;4.398;2023-12-07T14:22:19;32.83;;;20.00;;
40453;SDS011;26160;51.858;4.398;2023-12-07T14:24:45;30.20;;;18.80;;
40453;SDS011;26160;51.858;4.398;2023-12-07T14:27:13;25.70;;;18.23;;
40453;SDS011;26160;51.858;4.398;2023-12-07T14:29:42;25.67;;;18.30;;
40453;SDS011;26160;51.858;4.398;2023-12-07T14:32:08;31.53;;;20.00;;
40453;SDS011;26160;51.858;4.398;2023-12-07T14:34:35;30.57;;;19.23;;
40453;SDS011;26160;51.858;4.398;2023-12-07T14:37:04;26.73;;;18.33;;
40453;SDS011;26160;51.858;4.398;2023-12-07T14:39:31;30.60;;;19.93;;
40453;SDS011;26160;51.858;4.398;2023-12-07T14:41:57;35.70;;;20.17;;
40453;SDS011;26160;51.858;4.398;2023-12-07T14:44:23;29.27;;;18.13;;
40453;SDS011;26160;51.858;4.398;2023-12-07T14:46:50;30.53;;;19.07;;
40453;SDS011;26160;51.858;4.398;2023-12-07T14:49:16;35.40;;;19.83;;
40453;SDS011;26160;51.858;4.398;2023-12-07T14:51:46;34.57;;;20.70;;
40453;SDS011;26160;51.858;4.398;2023-12-07T14:54:16;32.47;;;19.37;;
40453;SDS011;26160;51.858;4.398;2023-12-07T14:56:43;26.97;;;18.03;;
40453;SDS011;26160;51.858;4.398;2023-12-07T14:59:09;35.50;;;18.93;;
40453;SDS011;26160;51.858;4.398;2023-12-07T15:01:38;33.67;;;18.30;;
40453;SDS011;26160;51.858;4.398;2023-12-07T15:04:05;31.03;;;18.63;;
40453;SDS011;26160;51.858;4.398;2023-12-07T15:06:31;28.27;;;18.10;;
40453;SDS011;26160;51.858;4.398;2023-12-07T15:08:59;25.53;;;16.67;;
40453;SDS011;26160;51.858;4.398;2023-12-07T15:11:25;30.93;;;18.07;;
40453;SDS011;26160;51.858;4.398;2023-12-07T15:13:51;28.73;;;17.17;;
40453;SDS011;26160;51.858;4.398;2023-12-07T15:16:17;28.50;;;17.53;;
40453;SDS011;26160;51.858;4.398;2023-12-07T15:18:44;27.37;;;17.50;;
40453;SDS011;26160;51.858;4.398;2023-12-07T15:21:12;23.73;;;15.93;;
40453;SDS011;26160;51.858;4.398;2023-12-07T15:23:42;29.37;;;17.20;;
40453;SDS011;26160;51.858;4.398;2023-12-07T15:26:09;25.97;;;15.13;;
40453;SDS011;26160;51.858;4.398;2023-12-07T15:28:35;22.90;;;15.50;;
40453;SDS011;26160;51.858;4.398;2023-12-07T15:31:03;26.57;;;16.73;;
40453;SDS011;26160;51.858;4.398;2023-12-07T15:33:30;21.90;;;15.43;;
40453;SDS011;26160;51.858;4.398;2023-12-07T15:35:58;24.07;;;15.93;;
40453;SDS011;26160;51.858;4.398;2023-12-07T15:38:25;24.10;;;16.17;;
40453;SDS011;26160;51.858;4.398;2023-12-07T15:40:52;23.37;;;15.10;;
40453;SDS011;26160;51.858;4.398;2023-12-07T15:43:22;24.10;;;16.00;;
40453;SDS011;26160;51.858;4.398;2023-12-07T15:45:49;23.67;;;15.73;;
40453;SDS011;26160;51.858;4.398;2023-12-07T15:48:16;24.03;;;16.53;;
40453;SDS011;26160;51.858;4.398;2023-12-07T15:50:44;26.20;;;16.93;;
40453;SDS011;26160;51.858;4.398;2023-12-07T15:53:12;28.23;;;18.13;;
40453;SDS011;26160;51.858;4.398;2023-12-07T15:55:38;25.97;;;16.37;;
40453;SDS011;26160;51.858;4.398;2023-12-07T15:58:04;30.17;;;17.97;;
40453;SDS011;26160;51.858;4.398;2023-12-07T16:00:31;26.50;;;17.97;;
40453;SDS011;26160;51.858;4.398;2023-12-07T16:02:57;22.73;;;17.30;;
40453;SDS011;26160;51.858;4.398;2023-12-07T16:05:24;28.73;;;18.23;;